createdAt,value
2023-01-06T00:01:28.607Z,13.35
2023-01-06T00:03:59.578Z,13.37
2023-01-06T00:06:31.084Z,13.43
2023-01-06T00:09:01.150Z,13.43
2023-01-06T00:11:29.597Z,13.42
2023-01-06T00:13:59.668Z,13.44
2023-01-06T00:16:27.591Z,13.43
2023-01-06T00:18:57.121Z,13.47
2023-01-06T00:21:25.633Z,13.46
2023-01-06T00:23:53.702Z,13.50
2023-01-06T00:26:22.046Z,13.53
2023-01-06T00:28:50.029Z,13.56
2023-01-06T00:31:19.658Z,13.61
2023-01-06T00:33:47.733Z,13.64
2023-01-06T00:36:16.145Z,13.67
2023-01-06T00:38:44.320Z,13.73
2023-01-06T00:41:27.754Z,13.71
2023-01-06T00:43:56.433Z,13.76
2023-01-06T00:46:29.496Z,13.80
2023-01-06T00:49:06.924Z,13.88
2023-01-06T00:51:37.041Z,13.87
2023-01-06T00:54:05.109Z,13.85
2023-01-06T00:56:33.063Z,13.82
2023-01-06T00:59:03.049Z,13.83
2023-01-06T01:01:32.635Z,13.82
2023-01-06T01:04:00.810Z,13.84
2023-01-06T01:06:29.178Z,13.85
2023-01-06T01:08:58.677Z,13.83
2023-01-06T01:11:46.427Z,13.89
2023-01-06T01:14:15.433Z,13.87
2023-01-06T01:16:45.153Z,13.89
2023-01-06T01:19:13.837Z,13.89
2023-01-06T01:21:41.840Z,13.92
2023-01-06T01:24:10.128Z,13.90
2023-01-06T01:26:38.124Z,13.91
2023-01-06T01:29:06.345Z,13.90
2023-01-06T01:31:34.700Z,13.90
2023-01-06T01:34:04.575Z,13.89
2023-01-06T01:36:32.564Z,13.85
2023-01-06T01:39:00.810Z,13.86
2023-01-06T01:41:30.401Z,13.84
2023-01-06T01:44:00.601Z,13.87
2023-01-06T01:46:32.404Z,13.85
2023-01-06T01:49:04.126Z,13.87
2023-01-06T01:51:37.012Z,13.88
2023-01-06T01:54:09.087Z,13.90
2023-01-06T01:56:42.902Z,13.87
2023-01-06T01:59:13.401Z,13.87
2023-01-06T02:01:41.643Z,13.91
2023-01-06T02:04:12.095Z,13.90
2023-01-06T02:06:42.329Z,13.94
2023-01-06T02:09:16.276Z,13.94
2023-01-06T02:11:44.711Z,13.95
2023-01-06T02:14:14.376Z,13.93
2023-01-06T02:16:58.319Z,13.90
2023-01-06T02:19:59.948Z,13.85
2023-01-06T02:22:48.903Z,13.81
2023-01-06T02:25:46.108Z,13.78
2023-01-06T02:28:52.770Z,13.74
2023-01-06T02:31:48.243Z,13.74
2023-01-06T02:34:24.389Z,13.73
2023-01-06T02:37:03.420Z,13.74
2023-01-06T02:39:42.264Z,13.79
2023-01-06T02:42:19.969Z,13.80
2023-01-06T02:44:57.475Z,13.80
2023-01-06T02:47:35.022Z,13.85
2023-01-06T02:50:15.756Z,13.88
2023-01-06T02:52:47.767Z,13.85
2023-01-06T02:55:23.592Z,13.86
2023-01-06T02:57:56.829Z,13.83
2023-01-06T03:00:30.387Z,13.78
2023-01-06T03:03:04.632Z,13.77
2023-01-06T03:05:36.687Z,13.79
2023-01-06T03:08:10.562Z,13.83
2023-01-06T03:10:40.546Z,13.85
2023-01-06T03:13:14.390Z,13.79
2023-01-06T03:15:42.734Z,13.67
2023-01-06T03:18:12.189Z,13.59
2023-01-06T03:20:41.442Z,13.54
2023-01-06T03:23:09.569Z,13.44
2023-01-06T03:25:39.409Z,13.38
2023-01-06T03:28:07.719Z,13.30
2023-01-06T03:30:43.766Z,13.27
2023-01-06T03:33:22.497Z,13.25
2023-01-06T03:36:01.980Z,13.22
2023-01-06T03:38:43.642Z,13.23
2023-01-06T03:41:44.619Z,13.23
2023-01-06T03:44:20.056Z,13.28
2023-01-06T03:46:53.935Z,13.34
2023-01-06T03:49:29.951Z,13.35
2023-01-06T03:52:00.394Z,13.37
2023-01-06T03:54:39.482Z,13.39
2023-01-06T03:57:10.728Z,13.40
2023-01-06T03:59:44.243Z,13.43
2023-01-06T04:02:12.593Z,13.34
2023-01-06T04:04:42.731Z,13.28
2023-01-06T04:07:10.835Z,13.19
2023-01-06T04:09:38.706Z,13.14
2023-01-06T04:12:24.248Z,13.08
2023-01-06T04:14:52.123Z,13.06
2023-01-06T04:17:20.333Z,13.10
2023-01-06T04:19:49.676Z,13.17
2023-01-06T04:22:17.605Z,13.17
2023-01-06T04:24:45.567Z,13.21
2023-01-06T04:27:13.528Z,13.26
2023-01-06T04:29:41.724Z,13.22
2023-01-06T04:32:09.850Z,13.23
2023-01-06T04:34:37.838Z,13.24
2023-01-06T04:37:07.495Z,13.29
2023-01-06T04:39:35.489Z,13.31
2023-01-06T04:42:03.418Z,13.35
2023-01-06T04:44:31.351Z,13.39
2023-01-06T04:46:59.312Z,13.42
2023-01-06T04:49:27.216Z,13.49
2023-01-06T04:51:55.359Z,13.53
2023-01-06T04:54:24.877Z,13.56
2023-01-06T04:56:52.903Z,13.61
2023-01-06T04:59:21.373Z,13.62
2023-01-06T05:01:49.542Z,13.65
2023-01-06T05:04:17.553Z,13.68
2023-01-06T05:06:45.743Z,13.69
2023-01-06T05:09:13.944Z,13.70
2023-01-06T05:11:43.485Z,13.73
2023-01-06T05:14:11.753Z,13.68
2023-01-06T05:16:40.052Z,13.68
2023-01-06T05:19:08.096Z,13.67
2023-01-06T05:21:36.081Z,13.70
2023-01-06T05:24:04.113Z,13.68
2023-01-06T05:26:32.181Z,13.70
2023-01-06T05:29:01.545Z,13.70
2023-01-06T05:31:29.638Z,13.73
2023-01-06T05:33:57.889Z,13.75
2023-01-06T05:36:25.810Z,13.74
2023-01-06T05:38:54.953Z,13.76
2023-01-06T05:41:23.157Z,13.78
2023-01-06T05:43:51.100Z,13.77
2023-01-06T05:46:20.502Z,13.80
2023-01-06T05:48:48.376Z,13.81
2023-01-06T05:51:17.631Z,13.78
2023-01-06T05:53:47.439Z,13.74
2023-01-06T05:56:18.396Z,13.75
2023-01-06T05:58:47.892Z,13.72
2023-01-06T06:01:18.214Z,13.71
2023-01-06T06:03:47.947Z,13.70
2023-01-06T06:06:16.966Z,13.68
2023-01-06T06:08:44.892Z,13.68
2023-01-06T06:11:15.147Z,13.65
2023-01-06T06:13:47.154Z,13.62
2023-01-06T06:16:17.092Z,13.59
2023-01-06T06:18:45.584Z,13.53
2023-01-06T06:21:17.186Z,13.51
2023-01-06T06:23:45.542Z,13.45
2023-01-06T06:26:13.676Z,13.41
2023-01-06T06:28:42.606Z,13.36
2023-01-06T06:31:12.204Z,13.31
2023-01-06T06:33:40.687Z,13.30
2023-01-06T06:36:12.320Z,13.26
2023-01-06T06:38:41.687Z,13.20
2023-01-06T06:41:09.677Z,13.20
2023-01-06T06:43:37.749Z,13.21
2023-01-06T06:46:06.269Z,13.18
2023-01-06T06:48:34.749Z,13.20
2023-01-06T06:51:04.778Z,13.20
2023-01-06T06:53:34.058Z,13.19
2023-01-06T06:56:03.469Z,13.23
2023-01-06T06:58:31.804Z,13.24
2023-01-06T07:01:00.020Z,13.26
2023-01-06T07:03:27.938Z,13.30
2023-01-06T07:05:57.388Z,13.33
2023-01-06T07:08:25.458Z,13.36
2023-01-06T07:10:53.519Z,13.37
2023-01-06T07:13:22.947Z,13.33
2023-01-06T07:15:51.011Z,13.31
2023-01-06T07:18:19.370Z,13.28
2023-01-06T07:20:49.801Z,13.20
2023-01-06T07:23:17.767Z,13.15
2023-01-06T07:25:45.796Z,13.11
2023-01-06T07:28:14.027Z,13.08
2023-01-06T07:30:43.454Z,13.07
2023-01-06T07:33:11.551Z,13.08
2023-01-06T07:35:39.608Z,13.08
2023-01-06T07:38:08.911Z,13.08
2023-01-06T07:40:37.122Z,13.11
2023-01-06T07:43:06.542Z,13.10
2023-01-06T07:45:35.293Z,13.14
2023-01-06T07:48:05.577Z,13.19
2023-01-06T07:50:33.978Z,13.18
2023-01-06T07:53:03.581Z,13.19
2023-01-06T07:55:31.708Z,13.19
2023-01-06T07:57:59.935Z,13.17
2023-01-06T08:00:28.087Z,13.14
2023-01-06T08:02:56.078Z,13.14
2023-01-06T08:05:25.585Z,13.13
2023-01-06T08:07:53.485Z,13.12
2023-01-06T08:10:21.444Z,13.12
2023-01-06T08:12:49.390Z,13.10
2023-01-06T08:15:17.384Z,13.11
2023-01-06T08:17:45.378Z,13.13
2023-01-06T08:20:13.654Z,13.14
2023-01-06T08:22:43.040Z,13.14
2023-01-06T08:25:11.746Z,13.14
2023-01-06T08:27:39.904Z,13.14
2023-01-06T08:30:09.261Z,13.14
2023-01-06T08:32:37.221Z,13.17
2023-01-06T08:35:05.530Z,13.15
2023-01-06T08:37:33.499Z,13.13
2023-01-06T08:40:02.806Z,13.10
2023-01-06T08:42:30.784Z,13.06
2023-01-06T08:44:59.753Z,13.05
2023-01-06T08:47:27.801Z,13.02
2023-01-06T08:49:55.713Z,13.01
2023-01-06T08:52:23.753Z,13.02
2023-01-06T08:54:51.722Z,12.99
2023-01-06T08:57:21.151Z,12.94
2023-01-06T08:59:49.132Z,12.96
2023-01-06T09:02:17.299Z,12.94
2023-01-06T09:04:45.400Z,12.94
2023-01-06T09:07:13.440Z,12.95
2023-01-06T09:09:41.480Z,12.97
2023-01-06T09:12:09.533Z,12.99
2023-01-06T09:14:38.997Z,13.04
2023-01-06T09:17:06.944Z,13.06
2023-01-06T09:19:34.993Z,13.12
2023-01-06T09:22:02.954Z,13.13
2023-01-06T09:24:31.440Z,13.18
2023-01-06T09:26:59.651Z,13.20
2023-01-06T09:29:27.800Z,13.26
2023-01-06T09:31:57.300Z,13.29
2023-01-06T09:34:25.399Z,13.31
2023-01-06T09:36:53.515Z,13.32
2023-01-06T09:39:21.513Z,13.35
2023-01-06T09:42:20.400Z,13.37
2023-01-06T09:44:52.264Z,13.40
2023-01-06T09:47:25.633Z,13.44
2023-01-06T09:50:00.688Z,13.50
2023-01-06T09:52:38.933Z,13.55
2023-01-06T09:55:09.470Z,13.61
2023-01-06T09:57:41.285Z,13.69
2023-01-06T10:00:21.417Z,13.74
2023-01-06T10:02:50.876Z,13.76
2023-01-06T10:05:21.979Z,13.80
2023-01-06T10:07:59.780Z,13.80
2023-01-06T10:10:37.948Z,13.85
2023-01-06T10:13:20.756Z,13.92
2023-01-06T10:15:53.531Z,13.99
2023-01-06T10:18:36.815Z,14.07
2023-01-06T10:21:15.766Z,14.10
2023-01-06T10:24:13.228Z,14.16
2023-01-06T10:26:45.178Z,14.20
2023-01-06T10:29:16.193Z,14.27
2023-01-06T10:31:47.283Z,14.35
2023-01-06T10:34:22.209Z,14.39
2023-01-06T10:36:56.053Z,14.43
2023-01-06T10:39:26.647Z,14.47
2023-01-06T10:42:16.583Z,14.49
2023-01-06T10:44:44.624Z,14.53
2023-01-06T10:47:20.037Z,14.61
2023-01-06T10:49:49.539Z,14.65
2023-01-06T10:52:18.203Z,14.73
2023-01-06T10:54:47.143Z,14.76
2023-01-06T10:57:26.949Z,14.84
2023-01-06T11:00:13.358Z,14.92
2023-01-06T11:02:46.230Z,14.96
2023-01-06T11:05:17.899Z,15.00
2023-01-06T11:07:54.715Z,14.99
2023-01-06T11:10:32.101Z,14.98
2023-01-06T11:13:03.654Z,15.00
2023-01-06T11:15:39.397Z,15.01
2023-01-06T11:18:18.649Z,14.99
2023-01-06T11:21:03.590Z,14.97
2023-01-06T11:23:31.719Z,15.00
2023-01-06T11:26:06.167Z,15.02
2023-01-06T11:28:34.355Z,15.00
2023-01-06T11:31:07.349Z,15.07
2023-01-06T11:33:37.848Z,15.09
2023-01-06T11:36:13.121Z,15.07
2023-01-06T11:38:46.314Z,15.05
2023-01-06T11:41:22.640Z,15.08
2023-01-06T11:43:51.844Z,15.09
2023-01-06T11:46:23.917Z,15.09
2023-01-06T11:49:00.120Z,15.13
2023-01-06T11:51:49.003Z,15.14
2023-01-06T11:54:31.416Z,15.18
2023-01-06T11:57:17.364Z,15.20
2023-01-06T12:00:26.286Z,15.20
2023-01-06T12:03:03.540Z,15.26
2023-01-06T12:05:39.966Z,15.33
2023-01-06T12:08:16.154Z,15.37
2023-01-06T12:10:49.504Z,15.43
2023-01-06T12:13:20.363Z,15.48
2023-01-06T12:15:58.428Z,15.49
2023-01-06T12:18:31.634Z,15.50
2023-01-06T12:21:02.160Z,15.51
2023-01-06T12:23:35.943Z,15.54
2023-01-06T12:26:10.405Z,15.60
2023-01-06T12:28:42.777Z,15.65
2023-01-06T12:31:16.204Z,15.76
2023-01-06T12:33:49.042Z,15.82
2023-01-06T12:36:21.506Z,15.92
2023-01-06T12:38:55.959Z,15.96
2023-01-06T12:41:30.152Z,16.02
2023-01-06T12:44:04.912Z,16.05
2023-01-06T12:46:41.244Z,16.03
2023-01-06T12:49:21.790Z,16.06
2023-01-06T12:51:55.504Z,16.14
2023-01-06T12:54:29.102Z,16.19
2023-01-06T12:57:07.855Z,16.17
2023-01-06T12:59:46.921Z,16.22
2023-01-06T13:02:29.773Z,16.29
2023-01-06T13:05:24.105Z,16.33
2023-01-06T13:08:03.873Z,16.40
2023-01-06T13:10:39.608Z,16.46
2023-01-06T13:13:33.332Z,16.50
2023-01-06T13:16:06.518Z,16.55
2023-01-06T13:18:42.504Z,16.61
2023-01-06T13:21:14.294Z,16.69
2023-01-06T13:24:04.344Z,16.63
2023-01-06T13:27:03.337Z,16.56
2023-01-06T13:29:50.264Z,16.56
2023-01-06T13:32:50.166Z,16.57
2023-01-06T13:35:36.206Z,16.61
2023-01-06T13:38:22.307Z,16.71
2023-01-06T13:40:52.917Z,16.82
2023-01-06T13:43:24.389Z,16.93
2023-01-06T13:45:58.518Z,16.98
2023-01-06T13:48:31.926Z,17.11
2023-01-06T13:51:01.265Z,17.24
2023-01-06T13:53:37.115Z,17.34
2023-01-06T13:56:27.589Z,17.46
2023-01-06T13:59:24.209Z,17.48
2023-01-06T14:01:59.655Z,17.49
2023-01-06T14:04:49.692Z,17.47
2023-01-06T14:07:33.456Z,17.49
2023-01-06T14:10:02.369Z,17.54
2023-01-06T14:12:31.077Z,17.57
2023-01-06T14:15:03.053Z,17.58
2023-01-06T14:17:42.872Z,17.50
2023-01-06T14:20:30.021Z,17.42
2023-01-06T14:23:01.883Z,17.37
2023-01-06T14:25:31.254Z,17.34
2023-01-06T14:28:25.975Z,17.29
2023-01-06T14:31:25.606Z,17.22
2023-01-06T14:33:57.768Z,17.19
2023-01-06T14:36:28.079Z,17.15
2023-01-06T14:39:00.658Z,17.04
2023-01-06T14:41:32.309Z,16.96
2023-01-06T14:44:07.619Z,16.92
2023-01-06T14:46:42.943Z,16.85
2023-01-06T14:49:20.870Z,16.80
2023-01-06T14:51:52.636Z,16.76
2023-01-06T14:54:26.682Z,16.76
2023-01-06T14:56:56.825Z,16.67
2023-01-06T14:59:25.387Z,16.64
2023-01-06T15:02:00.126Z,16.58
2023-01-06T15:04:32.868Z,16.53
2023-01-06T15:07:17.068Z,16.45
2023-01-06T15:09:45.853Z,16.40
2023-01-06T15:12:35.133Z,16.31
2023-01-06T15:15:16.195Z,16.32
2023-01-06T15:17:44.585Z,16.27
2023-01-06T15:20:15.332Z,16.27
2023-01-06T15:22:46.880Z,16.27
2023-01-06T15:25:22.179Z,16.23
2023-01-06T15:27:50.787Z,16.26
2023-01-06T15:30:21.086Z,16.24
2023-01-06T15:32:51.276Z,16.25
2023-01-06T15:35:25.241Z,16.23
2023-01-06T15:38:00.079Z,16.24
2023-01-06T15:40:30.189Z,16.26
2023-01-06T15:42:59.810Z,16.32
2023-01-06T15:45:32.495Z,16.33
2023-01-06T15:48:09.472Z,16.35
2023-01-06T15:50:39.729Z,16.41
2023-01-06T15:53:19.756Z,16.42
2023-01-06T15:55:51.403Z,16.46
2023-01-06T15:58:25.709Z,16.43
2023-01-06T16:01:00.640Z,16.49
2023-01-06T16:03:32.078Z,16.51
2023-01-06T16:06:11.679Z,16.48
2023-01-06T16:08:40.991Z,16.57
2023-01-06T16:11:42.773Z,16.49
2023-01-06T16:14:26.922Z,16.51
2023-01-06T16:17:02.702Z,16.58
2023-01-06T16:19:31.213Z,16.56
2023-01-06T16:22:05.087Z,16.57
2023-01-06T16:24:33.585Z,16.57
2023-01-06T16:27:03.902Z,16.53
2023-01-06T16:29:33.934Z,16.55
2023-01-06T16:32:21.101Z,16.56
2023-01-06T16:34:55.159Z,16.56
2023-01-06T16:37:24.682Z,16.58
2023-01-06T16:39:59.376Z,16.56
2023-01-06T16:42:40.869Z,16.55
2023-01-06T16:45:14.274Z,16.51
2023-01-06T16:47:42.683Z,16.57
2023-01-06T16:50:19.693Z,16.54
2023-01-06T16:52:52.969Z,16.55
2023-01-06T16:55:21.780Z,16.59
2023-01-06T16:57:51.139Z,16.59
2023-01-06T17:00:22.444Z,16.56
2023-01-06T17:02:54.090Z,16.57
2023-01-06T17:05:28.003Z,16.51
2023-01-06T17:08:04.006Z,16.53
2023-01-06T17:10:48.137Z,16.52
2023-01-06T17:13:34.969Z,16.49
2023-01-06T17:16:14.899Z,16.48
2023-01-06T17:18:52.502Z,16.42
2023-01-06T17:21:22.845Z,16.46
2023-01-06T17:23:58.567Z,16.42
2023-01-06T17:26:28.657Z,16.45
2023-01-06T17:28:58.891Z,16.46
2023-01-06T17:31:36.506Z,16.45
2023-01-06T17:34:13.579Z,16.42
2023-01-06T17:36:44.215Z,16.46
2023-01-06T17:39:20.082Z,16.41
2023-01-06T17:41:48.069Z,16.41
2023-01-06T17:44:17.840Z,16.42
2023-01-06T17:46:46.872Z,16.42
2023-01-06T17:49:35.389Z,16.41
2023-01-06T17:52:15.837Z,16.40
2023-01-06T17:55:22.708Z,16.41
2023-01-06T17:57:51.638Z,16.41
2023-01-06T18:00:23.139Z,16.40
2023-01-06T18:02:56.796Z,16.44
2023-01-06T18:06:08.816Z,16.43
2023-01-06T18:08:38.835Z,16.45
2023-01-06T18:11:25.070Z,16.45
2023-01-06T18:13:54.035Z,16.47
2023-01-06T18:16:29.323Z,16.51
2023-01-06T18:19:05.820Z,16.51
2023-01-06T18:21:37.941Z,16.58
2023-01-06T18:24:20.092Z,16.59
2023-01-06T18:26:53.943Z,16.63
2023-01-06T18:29:25.545Z,16.63
2023-01-06T18:31:55.160Z,16.62
2023-01-06T18:34:36.486Z,16.71
2023-01-06T18:37:04.773Z,16.70
2023-01-06T18:39:39.793Z,16.74
2023-01-06T18:42:34.112Z,16.73
2023-01-06T18:45:19.275Z,16.75
2023-01-06T18:47:52.206Z,16.76
2023-01-06T18:50:33.418Z,16.77
2023-01-06T18:53:06.937Z,16.80
2023-01-06T18:55:38.703Z,16.87
2023-01-06T18:58:21.778Z,16.88
2023-01-06T19:00:54.393Z,16.92
2023-01-06T19:03:42.239Z,16.87
2023-01-06T19:06:41.681Z,16.92
2023-01-06T19:09:18.980Z,16.92
2023-01-06T19:11:48.270Z,16.94
2023-01-06T19:14:20.652Z,16.95
2023-01-06T19:17:00.286Z,16.94
2023-01-06T19:19:37.001Z,16.94
2023-01-06T19:22:17.242Z,16.92
2023-01-06T19:24:52.461Z,16.93
2023-01-06T19:27:50.997Z,16.87
2023-01-06T19:30:45.767Z,16.86
2023-01-06T19:33:39.159Z,16.87
2023-01-06T19:36:36.066Z,16.84
2023-01-06T19:39:16.780Z,16.89
2023-01-06T19:41:45.408Z,16.92
2023-01-06T19:44:15.152Z,16.90
2023-01-06T19:46:46.360Z,16.97
2023-01-06T19:49:18.304Z,16.96
2023-01-06T19:51:47.305Z,16.97
2023-01-06T19:54:26.199Z,17.01
2023-01-06T19:56:55.476Z,17.00
2023-01-06T19:59:26.532Z,17.00
2023-01-06T20:02:00.346Z,17.02
2023-01-06T20:04:29.112Z,17.01
2023-01-06T20:06:57.361Z,16.99
2023-01-06T20:09:25.812Z,17.03
2023-01-06T20:11:54.107Z,17.10
2023-01-06T20:14:22.575Z,17.04
2023-01-06T20:16:50.783Z,17.11
2023-01-06T20:19:21.712Z,17.10
2023-01-06T20:21:50.086Z,17.13
2023-01-06T20:24:18.127Z,17.14
2023-01-06T20:26:46.331Z,17.14
2023-01-06T20:29:14.311Z,17.12
2023-01-06T20:31:44.889Z,17.15
2023-01-06T20:34:12.904Z,17.16
2023-01-06T20:36:43.092Z,17.17
2023-01-06T20:39:12.220Z,17.21
2023-01-06T20:41:40.239Z,17.19
2023-01-06T20:44:08.398Z,17.23
2023-01-06T20:46:36.371Z,17.25
2023-01-06T20:49:04.432Z,17.24
2023-01-06T20:51:32.484Z,17.24
2023-01-06T20:54:01.916Z,17.28
2023-01-06T20:56:29.953Z,17.24
2023-01-06T20:58:58.034Z,17.21
2023-01-06T21:01:26.222Z,17.28
2023-01-06T21:03:54.499Z,17.27
2023-01-06T21:06:22.733Z,17.23
2023-01-06T21:08:50.686Z,17.19
2023-01-06T21:11:20.051Z,17.18
2023-01-06T21:13:48.180Z,17.16
2023-01-06T21:16:16.387Z,17.06
2023-01-06T21:18:44.295Z,17.04
2023-01-06T21:21:12.366Z,17.02
2023-01-06T21:23:40.850Z,17.02
2023-01-06T21:26:08.792Z,17.04
2023-01-06T21:28:38.247Z,17.01
2023-01-06T21:31:06.485Z,17.03
2023-01-06T21:33:34.549Z,17.07
2023-01-06T21:36:02.572Z,17.00
2023-01-06T21:38:30.764Z,17.06
2023-01-06T21:41:24.565Z,17.08
2023-01-06T21:43:53.199Z,17.08
2023-01-06T21:46:21.722Z,17.07
2023-01-06T21:48:49.809Z,17.10
2023-01-06T21:51:18.682Z,17.11
2023-01-06T21:53:47.002Z,17.13
2023-01-06T21:56:15.311Z,17.13
2023-01-06T21:58:43.643Z,17.16
2023-01-06T22:01:14.529Z,17.19
2023-01-06T22:03:42.513Z,17.20
2023-01-06T22:06:11.692Z,17.19
2023-01-06T22:08:40.375Z,17.20
2023-01-06T22:11:08.811Z,17.15
2023-01-06T22:13:37.497Z,17.12
2023-01-06T22:16:05.974Z,17.12
2023-01-06T22:18:38.616Z,17.10
2023-01-06T22:21:07.519Z,17.09
2023-01-06T22:23:36.845Z,17.08
2023-01-06T22:26:05.246Z,17.04
2023-01-06T22:28:33.310Z,17.00
2023-01-06T22:31:01.285Z,16.94
2023-01-06T22:33:29.240Z,16.92
2023-01-06T22:35:59.837Z,16.89
2023-01-06T22:38:28.087Z,16.85
2023-01-06T22:40:56.163Z,16.85
2023-01-06T22:43:24.287Z,16.84
2023-01-06T22:45:53.260Z,16.86
2023-01-06T22:48:21.916Z,16.89
2023-01-06T22:50:57.177Z,16.90
2023-01-06T22:53:27.754Z,16.91
2023-01-06T22:55:59.694Z,16.96
2023-01-06T22:58:28.376Z,16.98
2023-01-06T23:00:56.781Z,17.01
2023-01-06T23:03:24.931Z,16.98
2023-01-06T23:05:57.305Z,17.02
2023-01-06T23:08:27.264Z,16.98
2023-01-06T23:11:00.004Z,16.99
2023-01-06T23:13:28.179Z,17.01
2023-01-06T23:16:04.845Z,16.95
2023-01-06T23:18:33.807Z,16.97
2023-01-06T23:21:03.746Z,16.97
2023-01-06T23:23:34.740Z,16.95
2023-01-06T23:26:04.778Z,16.94
2023-01-06T23:28:33.338Z,16.95
2023-01-06T23:31:06.074Z,16.95
2023-01-06T23:33:38.157Z,16.91
2023-01-06T23:36:06.968Z,17.00
2023-01-06T23:38:37.070Z,17.03
2023-01-06T23:41:07.628Z,17.06
2023-01-06T23:43:36.937Z,17.09
2023-01-06T23:46:07.287Z,17.06
2023-01-06T23:48:37.050Z,17.05
2023-01-06T23:51:06.876Z,17.01
2023-01-06T23:53:37.839Z,16.99
2023-01-06T23:56:08.310Z,16.97
2023-01-06T23:58:38.293Z,16.97
